Terminal Aerodrome Forecast
Issued by NWS

Home | Current Version | Previous Version | Text Only | Print | Product List | Glossary On
Versions: 1 2 3 4 5 6 7 8 9 10 11 12 13 14 15 16 17 18 19
000
FTUS41 KPBZ 291738
TAFAGC
TAF
KAGC 291738Z 2918/3018 28008KT 3SM -TSRA OVC045CB
     FM291830 28008KT P6SM OVC040
     FM300000 01004KT P6SM BKN100
     FM300600 08003KT P6SM BKN250
     FM301500 20010KT P6SM BKN150=

USA.gov is the U.S. government's official web portal to all federal, state and local government web resources and services.